createdAt,value
2023-02-13T00:03:06.284Z,7.09
2023-02-13T00:08:10.443Z,7.11
2023-02-13T00:13:13.199Z,7.06
2023-02-13T00:18:15.932Z,7.07
2023-02-13T00:23:19.981Z,7.01
2023-02-13T00:28:22.744Z,7.05
2023-02-13T00:33:25.505Z,7.02
2023-02-13T00:38:30.681Z,6.98
2023-02-13T00:43:33.710Z,6.98
2023-02-13T00:48:36.972Z,6.98
2023-02-13T00:53:42.128Z,7.02
2023-02-13T00:58:44.912Z,7.06
2023-02-13T01:03:47.826Z,7.00
2023-02-13T01:08:51.974Z,7.01
2023-02-13T01:13:54.735Z,6.95
2023-02-13T01:18:57.495Z,6.94
2023-02-13T01:24:04.445Z,6.95
2023-02-13T01:29:07.461Z,6.95
2023-02-13T01:34:10.187Z,6.91
2023-02-13T01:39:14.554Z,7.00
2023-02-13T01:44:46.730Z,7.00
2023-02-13T01:49:51.515Z,6.98
2023-02-13T01:54:55.609Z,6.98
2023-02-13T02:00:02.865Z,6.98
2023-02-13T02:05:07.963Z,6.95
2023-02-13T02:10:17.620Z,6.93
2023-02-13T02:15:21.298Z,6.86
2023-02-13T02:20:36.715Z,6.88
2023-02-13T02:26:02.522Z,6.94
2023-02-13T02:31:41.854Z,6.87
2023-02-13T02:37:06.709Z,6.84
2023-02-13T02:42:19.774Z,6.79
2023-02-13T02:47:43.724Z,6.86
2023-02-13T02:52:59.951Z,6.76
2023-02-13T02:58:26.513Z,6.82
2023-02-13T03:03:46.261Z,6.74
2023-02-13T03:09:12.148Z,6.82
2023-02-13T03:14:17.771Z,6.77
2023-02-13T03:19:47.269Z,6.81
2023-02-13T03:24:58.450Z,6.74
2023-02-13T03:30:08.428Z,6.72
2023-02-13T03:35:38.647Z,6.71
2023-02-13T03:41:02.456Z,6.71
2023-02-13T03:46:05.548Z,6.74
2023-02-13T03:51:09.968Z,6.76
2023-02-13T03:56:32.007Z,6.69
2023-02-13T04:01:36.931Z,6.74
2023-02-13T04:06:44.148Z,6.73
2023-02-13T04:11:54.562Z,6.67
2023-02-13T04:17:00.496Z,6.66
2023-02-13T04:22:03.758Z,6.63
2023-02-13T04:27:08.110Z,6.62
2023-02-13T04:32:11.319Z,6.64
2023-02-13T04:37:14.257Z,6.58
2023-02-13T04:42:18.322Z,6.61
2023-02-13T04:47:21.018Z,6.58
2023-02-13T04:52:23.973Z,6.57
2023-02-13T04:57:28.061Z,6.61
2023-02-13T05:02:32.263Z,6.55
2023-02-13T05:07:34.976Z,6.53
2023-02-13T05:12:39.070Z,6.48
2023-02-13T05:17:44.538Z,6.49
2023-02-13T05:23:05.346Z,6.46
2023-02-13T05:28:30.380Z,6.50
2023-02-13T05:33:33.161Z,6.50
2023-02-13T05:38:35.887Z,6.45
2023-02-13T05:43:39.954Z,6.46
2023-02-13T05:48:42.768Z,6.46
2023-02-13T05:53:45.468Z,6.38
2023-02-13T05:58:52.362Z,6.40
2023-02-13T06:03:56.275Z,6.34
2023-02-13T06:09:00.537Z,6.35
2023-02-13T06:14:04.687Z,6.39
2023-02-13T06:19:08.031Z,6.37
2023-02-13T06:24:10.734Z,6.34
2023-02-13T06:29:14.856Z,6.43
2023-02-13T06:34:17.573Z,6.40
2023-02-13T06:39:20.393Z,6.35
2023-02-13T06:44:24.488Z,6.39
2023-02-13T06:49:27.190Z,6.36
2023-02-13T06:54:45.871Z,6.33
2023-02-13T06:59:50.222Z,6.32
2023-02-13T07:04:53.364Z,6.28
2023-02-13T07:09:56.150Z,6.39
2023-02-13T07:15:00.267Z,6.28
2023-02-13T07:20:04.416Z,6.31
2023-02-13T07:25:08.002Z,6.30
2023-02-13T07:30:12.954Z,6.36
2023-02-13T07:35:15.668Z,6.35
2023-02-13T07:40:18.570Z,6.37
2023-02-13T07:45:22.643Z,6.68
2023-02-13T07:50:25.649Z,7.08
2023-02-13T07:55:28.749Z,7.12
2023-02-13T08:00:32.848Z,7.35
2023-02-13T08:05:35.742Z,6.83
2023-02-13T08:11:07.255Z,6.83
2023-02-13T08:16:11.340Z,6.92
2023-02-13T08:21:15.217Z,6.89
2023-02-13T08:26:17.948Z,6.69
2023-02-13T08:31:22.022Z,6.80
2023-02-13T08:36:24.941Z,6.75
2023-02-13T08:41:27.670Z,6.73
2023-02-13T08:46:31.840Z,6.76
2023-02-13T08:51:34.619Z,6.84
2023-02-13T08:56:37.308Z,6.89
2023-02-13T09:01:41.476Z,6.84
2023-02-13T09:06:44.266Z,6.91
2023-02-13T09:11:46.982Z,7.00
2023-02-13T09:16:51.164Z,7.06
2023-02-13T09:21:53.910Z,7.18
2023-02-13T09:26:57.116Z,7.08
2023-02-13T09:32:01.643Z,7.21
2023-02-13T09:37:04.504Z,7.38
2023-02-13T09:42:08.865Z,7.28
2023-02-13T09:47:17.911Z,7.33
2023-02-13T09:52:20.680Z,7.48
2023-02-13T09:57:29.787Z,7.69
2023-02-13T10:02:47.641Z,7.58
2023-02-13T10:07:56.411Z,7.53
2023-02-13T10:13:09.369Z,7.77
2023-02-13T10:18:15.883Z,7.66
2023-02-13T10:23:23.377Z,7.90
2023-02-13T10:28:32.207Z,8.15
2023-02-13T10:33:41.975Z,8.26
2023-02-13T10:38:46.689Z,8.33
2023-02-13T10:44:02.315Z,8.27
2023-02-13T10:49:21.150Z,8.32
2023-02-13T10:54:33.855Z,8.36
2023-02-13T10:59:48.254Z,8.09
2023-02-13T11:04:53.817Z,8.05
2023-02-13T11:09:59.624Z,8.17
2023-02-13T11:15:04.023Z,8.23
2023-02-13T11:20:23.103Z,8.12
2023-02-13T11:25:28.752Z,8.33
2023-02-13T11:30:33.716Z,8.57
2023-02-13T11:35:38.529Z,8.53
2023-02-13T11:40:44.434Z,8.70
2023-02-13T11:45:47.173Z,8.69
2023-02-13T11:50:56.274Z,8.90
2023-02-13T11:56:09.178Z,8.79
2023-02-13T12:01:25.803Z,9.00
2023-02-13T12:06:30.035Z,9.01
2023-02-13T12:11:37.953Z,9.23
2023-02-13T12:16:42.758Z,9.26
2023-02-13T12:22:02.549Z,9.31
2023-02-13T12:27:11.133Z,9.22
2023-02-13T12:32:19.884Z,9.50
2023-02-13T12:37:53.477Z,9.41
2023-02-13T12:43:11.472Z,9.63
2023-02-13T12:48:24.486Z,9.54
2023-02-13T12:53:47.608Z,9.82
2023-02-13T12:59:01.502Z,9.73
2023-02-13T13:04:13.602Z,9.94
2023-02-13T13:09:30.994Z,9.97
2023-02-13T13:14:37.797Z,10.05
2023-02-13T13:19:45.552Z,10.16
2023-02-13T13:24:56.642Z,9.94
2023-02-13T13:30:00.995Z,10.27
2023-02-13T13:35:05.342Z,10.34
2023-02-13T13:40:30.101Z,10.09
2023-02-13T13:45:40.580Z,10.22
2023-02-13T13:50:44.442Z,9.98
2023-02-13T13:56:09.156Z,10.15
2023-02-13T14:01:24.053Z,10.17
2023-02-13T14:06:28.364Z,10.30
2023-02-13T14:11:46.756Z,10.26
2023-02-13T14:16:49.809Z,10.18
2023-02-13T14:21:52.989Z,10.19
2023-02-13T14:27:05.225Z,10.11
2023-02-13T14:32:24.328Z,10.00
2023-02-13T14:37:34.471Z,10.18
2023-02-13T14:42:39.262Z,10.01
2023-02-13T14:47:43.923Z,10.03
2023-02-13T14:52:47.560Z,9.93
2023-02-13T14:57:54.149Z,9.88
2023-02-13T15:03:00.491Z,9.85
2023-02-13T15:08:04.937Z,9.79
2023-02-13T15:13:15.686Z,9.77
2023-02-13T15:18:21.043Z,9.64
2023-02-13T15:23:26.549Z,9.58
2023-02-13T15:28:30.836Z,9.56
2023-02-13T15:33:37.476Z,9.68
2023-02-13T15:38:41.039Z,9.51
2023-02-13T15:43:47.135Z,9.58
2023-02-13T15:48:49.993Z,9.91
2023-02-13T15:53:52.987Z,9.68
2023-02-13T15:58:57.546Z,9.39
2023-02-13T16:04:03.688Z,9.28
2023-02-13T16:09:06.984Z,9.19
2023-02-13T16:14:19.332Z,9.08
2023-02-13T16:19:27.678Z,9.03
2023-02-13T16:24:30.690Z,8.92
2023-02-13T16:29:34.873Z,8.84
2023-02-13T16:34:37.708Z,8.73
2023-02-13T16:39:40.389Z,8.52
2023-02-13T16:44:44.413Z,8.55
2023-02-13T16:49:52.694Z,8.46
2023-02-13T16:54:56.659Z,8.28
2023-02-13T17:00:05.093Z,8.20
2023-02-13T17:05:21.302Z,8.14
2023-02-13T17:10:27.325Z,7.94
2023-02-13T17:15:32.449Z,7.87
2023-02-13T17:20:36.261Z,7.77
2023-02-13T17:25:39.194Z,7.68
2023-02-13T17:30:44.301Z,7.69
2023-02-13T17:35:47.030Z,7.51
2023-02-13T17:40:50.320Z,7.43
2023-02-13T17:45:54.471Z,7.30
2023-02-13T17:50:57.561Z,7.21
2023-02-13T17:56:00.405Z,7.16
2023-02-13T18:01:04.649Z,7.13
2023-02-13T18:06:07.939Z,7.09
2023-02-13T18:11:11.628Z,7.03
2023-02-13T18:16:16.171Z,6.90
2023-02-13T18:21:18.936Z,6.72
2023-02-13T18:26:21.638Z,6.53
2023-02-13T18:31:25.836Z,6.61
2023-02-13T18:36:28.688Z,6.64
2023-02-13T18:41:31.760Z,6.45
2023-02-13T18:46:37.014Z,6.49
2023-02-13T18:51:39.733Z,6.39
2023-02-13T18:56:42.432Z,6.31
2023-02-13T19:01:46.710Z,6.20
2023-02-13T19:06:49.449Z,6.16
2023-02-13T19:11:52.167Z,6.11
2023-02-13T19:16:56.200Z,5.81
2023-02-13T19:21:58.889Z,5.65
2023-02-13T19:27:01.580Z,5.81
2023-02-13T19:32:05.978Z,5.77
2023-02-13T19:37:08.738Z,5.64
2023-02-13T19:42:11.413Z,5.59
2023-02-13T19:47:15.457Z,5.50
2023-02-13T19:52:18.157Z,5.50
2023-02-13T19:57:21.827Z,5.51
2023-02-13T20:02:25.941Z,5.53
2023-02-13T20:07:28.720Z,5.47
2023-02-13T20:12:31.500Z,5.45
2023-02-13T20:17:38.695Z,5.45
2023-02-13T20:22:41.462Z,5.30
2023-02-13T20:27:44.165Z,5.36
2023-02-13T20:32:48.215Z,5.28
2023-02-13T20:37:50.923Z,5.23
2023-02-13T20:42:53.817Z,5.16
2023-02-13T20:47:57.883Z,5.12
2023-02-13T20:53:00.582Z,4.98
2023-02-13T20:58:03.418Z,4.88
2023-02-13T21:03:07.560Z,4.83
2023-02-13T21:08:10.574Z,4.79
2023-02-13T21:13:13.298Z,4.62
2023-02-13T21:18:18.199Z,4.64
2023-02-13T21:23:21.906Z,4.60
2023-02-13T21:28:24.618Z,4.56
2023-02-13T21:33:28.673Z,4.48
2023-02-13T21:38:31.413Z,4.43
2023-02-13T21:43:37.598Z,4.37
2023-02-13T21:48:42.848Z,4.24
2023-02-13T21:53:46.448Z,4.17
2023-02-13T21:58:49.186Z,4.09
2023-02-13T22:03:53.653Z,4.06
2023-02-13T22:09:00.610Z,3.91
2023-02-13T22:14:05.220Z,3.76
2023-02-13T22:19:09.268Z,3.85
2023-02-13T22:24:12.176Z,3.78
2023-02-13T22:29:16.111Z,3.61
2023-02-13T22:34:20.327Z,3.66
2023-02-13T22:39:23.035Z,3.64
2023-02-13T22:44:25.828Z,3.64
2023-02-13T22:49:29.871Z,3.41
2023-02-13T22:54:32.585Z,3.51
2023-02-13T22:59:37.801Z,3.35
2023-02-13T23:04:44.625Z,3.42
2023-02-13T23:09:47.471Z,3.41
2023-02-13T23:14:50.203Z,3.37
2023-02-13T23:19:54.288Z,3.43
2023-02-13T23:24:57.341Z,3.33
2023-02-13T23:30:00.116Z,3.36
2023-02-13T23:35:04.901Z,3.34
2023-02-13T23:40:09.512Z,3.41
2023-02-13T23:45:13.218Z,3.31
2023-02-13T23:50:17.415Z,3.10
2023-02-13T23:55:20.341Z,3.05
